Aviation Digital Data Service (ADDS)

Output produced by METARs form (1220 UTC 25 June 2017)
found at http://aviationweather.gov/adds/metars/
 
KAEX 251153Z 03004KT 10SM FEW032 OVC050 21/21 A3013 RMK AO2 SLP206 70160 T02110206 10222 20211 53006